sensor_id;sensor_type;location;lat;lon;timestamp;temperature;humidity
52181;DHT22;38158;53.338;6.514;2023-03-14T00:01:24;9.00;99.90
52181;DHT22;38158;53.338;6.514;2023-03-14T00:03:50;9.00;99.90
52181;DHT22;38158;53.338;6.514;2023-03-14T00:06:16;9.00;99.90
52181;DHT22;38158;53.338;6.514;2023-03-14T00:08:43;9.00;99.90
52181;DHT22;38158;53.338;6.514;2023-03-14T00:11:15;9.00;99.90
52181;DHT22;38158;53.338;6.514;2023-03-14T00:13:41;9.10;99.90
52181;DHT22;38158;53.338;6.514;2023-03-14T00:16:10;9.00;99.90
52181;DHT22;38158;53.338;6.514;2023-03-14T00:18:36;9.10;99.90
52181;DHT22;38158;53.338;6.514;2023-03-14T00:21:03;9.10;99.90
52181;DHT22;38158;53.338;6.514;2023-03-14T00:23:30;9.10;99.90
52181;DHT22;38158;53.338;6.514;2023-03-14T00:26:00;9.10;99.90
52181;DHT22;38158;53.338;6.514;2023-03-14T00:28:26;9.10;99.90
52181;DHT22;38158;53.338;6.514;2023-03-14T00:30:52;9.10;99.90
52181;DHT22;38158;53.338;6.514;2023-03-14T00:33:17;9.20;99.90
52181;DHT22;38158;53.338;6.514;2023-03-14T00:35:43;9.20;99.90
52181;DHT22;38158;53.338;6.514;2023-03-14T00:38:09;9.20;99.90
52181;DHT22;38158;53.338;6.514;2023-03-14T00:40:39;9.30;99.90
52181;DHT22;38158;53.338;6.514;2023-03-14T00:43:04;9.30;99.90
52181;DHT22;38158;53.338;6.514;2023-03-14T00:45:30;9.30;99.90
52181;DHT22;38158;53.338;6.514;2023-03-14T00:47:55;9.40;99.90
52181;DHT22;38158;53.338;6.514;2023-03-14T00:50:21;9.30;99.90
52181;DHT22;38158;53.338;6.514;2023-03-14T00:52:47;9.30;99.90
52181;DHT22;38158;53.338;6.514;2023-03-14T00:55:14;9.30;99.90
52181;DHT22;38158;53.338;6.514;2023-03-14T00:57:39;9.20;99.90
52181;DHT22;38158;53.338;6.514;2023-03-14T01:00:06;9.20;99.90
52181;DHT22;38158;53.338;6.514;2023-03-14T01:02:33;9.20;99.90
52181;DHT22;38158;53.338;6.514;2023-03-14T01:04:59;9.20;99.90
52181;DHT22;38158;53.338;6.514;2023-03-14T01:07:24;9.20;99.90
52181;DHT22;38158;53.338;6.514;2023-03-14T01:09:52;9.20;99.90
52181;DHT22;38158;53.338;6.514;2023-03-14T01:12:18;9.30;99.90
52181;DHT22;38158;53.338;6.514;2023-03-14T01:14:44;9.30;99.90
52181;DHT22;38158;53.338;6.514;2023-03-14T01:17:09;9.20;99.90
52181;DHT22;38158;53.338;6.514;2023-03-14T01:19:35;9.20;99.90
52181;DHT22;38158;53.338;6.514;2023-03-14T01:22:00;9.20;99.90
52181;DHT22;38158;53.338;6.514;2023-03-14T01:24:26;9.20;99.90
52181;DHT22;38158;53.338;6.514;2023-03-14T01:26:52;9.20;99.90
52181;DHT22;38158;53.338;6.514;2023-03-14T01:29:18;9.20;99.90
52181;DHT22;38158;53.338;6.514;2023-03-14T01:31:43;9.20;99.90
52181;DHT22;38158;53.338;6.514;2023-03-14T01:34:09;9.20;99.90
52181;DHT22;38158;53.338;6.514;2023-03-14T01:36:35;9.30;99.90
52181;DHT22;38158;53.338;6.514;2023-03-14T01:39:00;9.30;99.90
52181;DHT22;38158;53.338;6.514;2023-03-14T01:41:26;9.40;99.90
52181;DHT22;38158;53.338;6.514;2023-03-14T01:43:53;9.40;99.90
52181;DHT22;38158;53.338;6.514;2023-03-14T01:46:25;9.50;99.90
52181;DHT22;38158;53.338;6.514;2023-03-14T01:51:45;9.60;99.90
52181;DHT22;38158;53.338;6.514;2023-03-14T01:54:36;9.60;99.90
52181;DHT22;38158;53.338;6.514;2023-03-14T01:59:37;9.60;99.90
52181;DHT22;38158;53.338;6.514;2023-03-14T02:02:05;9.60;99.90
52181;DHT22;38158;53.338;6.514;2023-03-14T02:04:34;9.60;99.90
52181;DHT22;38158;53.338;6.514;2023-03-14T02:07:12;9.60;99.90
52181;DHT22;38158;53.338;6.514;2023-03-14T02:09:40;9.70;99.90
52181;DHT22;38158;53.338;6.514;2023-03-14T02:12:09;9.60;99.90
52181;DHT22;38158;53.338;6.514;2023-03-14T02:14:36;9.60;99.90
52181;DHT22;38158;53.338;6.514;2023-03-14T02:17:04;9.50;99.90
52181;DHT22;38158;53.338;6.514;2023-03-14T02:22:31;9.50;99.90
52181;DHT22;38158;53.338;6.514;2023-03-14T02:27:41;9.30;99.90
52181;DHT22;38158;53.338;6.514;2023-03-14T02:30:23;9.30;99.90
52181;DHT22;38158;53.338;6.514;2023-03-14T02:33:18;9.30;99.90
52181;DHT22;38158;53.338;6.514;2023-03-14T02:35:56;9.20;99.90
52181;DHT22;38158;53.338;6.514;2023-03-14T02:39:03;9.10;99.90
52181;DHT22;38158;53.338;6.514;2023-03-14T02:41:32;9.10;99.90
52181;DHT22;38158;53.338;6.514;2023-03-14T02:43:57;9.10;99.90
52181;DHT22;38158;53.338;6.514;2023-03-14T02:46:23;9.10;99.90
52181;DHT22;38158;53.338;6.514;2023-03-14T02:49:01;9.00;99.90
52181;DHT22;38158;53.338;6.514;2023-03-14T02:51:27;9.00;99.90
52181;DHT22;38158;53.338;6.514;2023-03-14T02:53:53;9.10;99.90
52181;DHT22;38158;53.338;6.514;2023-03-14T02:56:19;9.00;99.90
52181;DHT22;38158;53.338;6.514;2023-03-14T02:58:44;9.00;99.90
52181;DHT22;38158;53.338;6.514;2023-03-14T03:01:10;9.00;99.90
52181;DHT22;38158;53.338;6.514;2023-03-14T03:03:36;9.00;99.90
52181;DHT22;38158;53.338;6.514;2023-03-14T03:06:02;8.90;99.90
52181;DHT22;38158;53.338;6.514;2023-03-14T03:08:28;8.90;99.90
52181;DHT22;38158;53.338;6.514;2023-03-14T03:10:54;8.90;99.90
52181;DHT22;38158;53.338;6.514;2023-03-14T03:13:20;8.90;99.90
52181;DHT22;38158;53.338;6.514;2023-03-14T03:15:46;8.90;99.90
52181;DHT22;38158;53.338;6.514;2023-03-14T03:18:12;8.90;99.90
52181;DHT22;38158;53.338;6.514;2023-03-14T03:20:38;8.90;99.90
52181;DHT22;38158;53.338;6.514;2023-03-14T03:23:04;8.90;99.90
52181;DHT22;38158;53.338;6.514;2023-03-14T03:25:30;8.90;99.90
52181;DHT22;38158;53.338;6.514;2023-03-14T03:27:56;8.90;99.90
52181;DHT22;38158;53.338;6.514;2023-03-14T03:30:22;8.80;99.90
52181;DHT22;38158;53.338;6.514;2023-03-14T03:32:48;8.80;99.90
52181;DHT22;38158;53.338;6.514;2023-03-14T03:35:14;8.80;99.90
52181;DHT22;38158;53.338;6.514;2023-03-14T03:37:39;8.70;99.90
52181;DHT22;38158;53.338;6.514;2023-03-14T03:40:06;8.70;99.90
52181;DHT22;38158;53.338;6.514;2023-03-14T03:42:33;8.70;99.90
52181;DHT22;38158;53.338;6.514;2023-03-14T03:44:59;8.60;99.90
52181;DHT22;38158;53.338;6.514;2023-03-14T03:47:25;8.60;99.90
52181;DHT22;38158;53.338;6.514;2023-03-14T03:49:51;8.60;99.90
52181;DHT22;38158;53.338;6.514;2023-03-14T03:52:17;8.60;99.90
52181;DHT22;38158;53.338;6.514;2023-03-14T03:54:43;8.60;99.90
52181;DHT22;38158;53.338;6.514;2023-03-14T03:57:09;8.60;99.90
52181;DHT22;38158;53.338;6.514;2023-03-14T03:59:34;8.60;99.90
52181;DHT22;38158;53.338;6.514;2023-03-14T04:02:00;8.60;99.90
52181;DHT22;38158;53.338;6.514;2023-03-14T04:04:26;8.60;99.90
52181;DHT22;38158;53.338;6.514;2023-03-14T04:06:51;8.60;99.90
52181;DHT22;38158;53.338;6.514;2023-03-14T04:09:17;8.60;99.90
52181;DHT22;38158;53.338;6.514;2023-03-14T04:11:43;8.60;99.90
52181;DHT22;38158;53.338;6.514;2023-03-14T04:14:09;8.60;99.90
52181;DHT22;38158;53.338;6.514;2023-03-14T04:16:35;8.60;99.90
52181;DHT22;38158;53.338;6.514;2023-03-14T04:19:01;8.60;99.90
52181;DHT22;38158;53.338;6.514;2023-03-14T04:21:27;8.60;99.90
52181;DHT22;38158;53.338;6.514;2023-03-14T04:23:52;8.60;99.90
52181;DHT22;38158;53.338;6.514;2023-03-14T04:26:18;8.60;99.90
52181;DHT22;38158;53.338;6.514;2023-03-14T04:28:44;8.60;99.90
52181;DHT22;38158;53.338;6.514;2023-03-14T04:31:11;8.60;99.90
52181;DHT22;38158;53.338;6.514;2023-03-14T04:33:37;8.60;99.90
52181;DHT22;38158;53.338;6.514;2023-03-14T04:36:04;8.60;99.90
52181;DHT22;38158;53.338;6.514;2023-03-14T04:38:30;8.60;99.90
52181;DHT22;38158;53.338;6.514;2023-03-14T04:40:56;8.60;99.90
52181;DHT22;38158;53.338;6.514;2023-03-14T04:43:22;8.60;99.90
52181;DHT22;38158;53.338;6.514;2023-03-14T04:45:47;8.60;99.90
52181;DHT22;38158;53.338;6.514;2023-03-14T04:48:13;8.60;99.90
52181;DHT22;38158;53.338;6.514;2023-03-14T04:50:39;8.60;99.90
52181;DHT22;38158;53.338;6.514;2023-03-14T04:53:05;8.50;99.90
52181;DHT22;38158;53.338;6.514;2023-03-14T04:55:31;8.50;99.90
52181;DHT22;38158;53.338;6.514;2023-03-14T04:57:58;8.50;99.90
52181;DHT22;38158;53.338;6.514;2023-03-14T05:00:24;8.50;99.90
52181;DHT22;38158;53.338;6.514;2023-03-14T05:02:50;8.50;99.90
52181;DHT22;38158;53.338;6.514;2023-03-14T05:05:16;8.50;99.90
52181;DHT22;38158;53.338;6.514;2023-03-14T05:07:41;8.50;99.90
52181;DHT22;38158;53.338;6.514;2023-03-14T05:10:08;8.50;99.90
52181;DHT22;38158;53.338;6.514;2023-03-14T05:12:34;8.50;99.90
52181;DHT22;38158;53.338;6.514;2023-03-14T05:14:59;8.50;99.90
52181;DHT22;38158;53.338;6.514;2023-03-14T05:17:25;8.40;99.90
52181;DHT22;38158;53.338;6.514;2023-03-14T05:19:51;8.40;99.90
52181;DHT22;38158;53.338;6.514;2023-03-14T05:22:17;8.40;99.90
52181;DHT22;38158;53.338;6.514;2023-03-14T05:24:42;8.40;99.90
52181;DHT22;38158;53.338;6.514;2023-03-14T05:27:08;8.40;99.90
52181;DHT22;38158;53.338;6.514;2023-03-14T05:29:34;8.40;99.90
52181;DHT22;38158;53.338;6.514;2023-03-14T05:32:00;8.40;99.90
52181;DHT22;38158;53.338;6.514;2023-03-14T05:34:25;8.40;99.90
52181;DHT22;38158;53.338;6.514;2023-03-14T05:36:51;8.30;99.90
52181;DHT22;38158;53.338;6.514;2023-03-14T05:39:17;8.30;99.90
52181;DHT22;38158;53.338;6.514;2023-03-14T05:41:42;8.30;99.90
52181;DHT22;38158;53.338;6.514;2023-03-14T05:44:08;8.30;99.90
52181;DHT22;38158;53.338;6.514;2023-03-14T05:46:33;8.30;99.90
52181;DHT22;38158;53.338;6.514;2023-03-14T05:49:00;8.30;99.90
52181;DHT22;38158;53.338;6.514;2023-03-14T05:51:25;8.30;99.90
52181;DHT22;38158;53.338;6.514;2023-03-14T05:53:51;8.30;99.90
52181;DHT22;38158;53.338;6.514;2023-03-14T05:56:17;8.30;99.90
52181;DHT22;38158;53.338;6.514;2023-03-14T05:58:42;8.30;99.90
52181;DHT22;38158;53.338;6.514;2023-03-14T06:01:08;8.30;99.90
52181;DHT22;38158;53.338;6.514;2023-03-14T06:03:34;8.30;99.90
52181;DHT22;38158;53.338;6.514;2023-03-14T06:06:00;8.30;99.90
52181;DHT22;38158;53.338;6.514;2023-03-14T06:08:26;8.30;99.90
52181;DHT22;38158;53.338;6.514;2023-03-14T06:10:52;8.20;99.90
52181;DHT22;38158;53.338;6.514;2023-03-14T06:13:18;8.20;99.90
52181;DHT22;38158;53.338;6.514;2023-03-14T06:15:44;8.10;99.90
52181;DHT22;38158;53.338;6.514;2023-03-14T06:18:10;7.80;99.90
52181;DHT22;38158;53.338;6.514;2023-03-14T06:20:39;7.40;99.90
52181;DHT22;38158;53.338;6.514;2023-03-14T06:23:06;7.20;99.90
52181;DHT22;38158;53.338;6.514;2023-03-14T06:25:32;7.00;99.90
52181;DHT22;38158;53.338;6.514;2023-03-14T06:27:58;6.80;99.90
52181;DHT22;38158;53.338;6.514;2023-03-14T06:30:24;6.60;99.90
52181;DHT22;38158;53.338;6.514;2023-03-14T06:32:49;6.30;99.90
52181;DHT22;38158;53.338;6.514;2023-03-14T06:35:15;6.10;99.90
52181;DHT22;38158;53.338;6.514;2023-03-14T06:37:41;5.80;99.90
52181;DHT22;38158;53.338;6.514;2023-03-14T06:40:08;5.60;99.90
52181;DHT22;38158;53.338;6.514;2023-03-14T06:42:34;5.30;99.90
52181;DHT22;38158;53.338;6.514;2023-03-14T06:44:59;5.00;99.90
52181;DHT22;38158;53.338;6.514;2023-03-14T06:47:25;4.90;99.90
52181;DHT22;38158;53.338;6.514;2023-03-14T06:49:51;4.70;99.90
52181;DHT22;38158;53.338;6.514;2023-03-14T06:52:16;4.60;99.90
52181;DHT22;38158;53.338;6.514;2023-03-14T06:54:42;4.50;99.90
52181;DHT22;38158;53.338;6.514;2023-03-14T06:57:08;4.40;99.90
52181;DHT22;38158;53.338;6.514;2023-03-14T06:59:33;4.40;99.90
52181;DHT22;38158;53.338;6.514;2023-03-14T07:01:59;4.30;99.90
52181;DHT22;38158;53.338;6.514;2023-03-14T07:04:25;4.20;99.90
52181;DHT22;38158;53.338;6.514;2023-03-14T07:06:50;4.20;99.90
52181;DHT22;38158;53.338;6.514;2023-03-14T07:09:16;4.10;99.90
52181;DHT22;38158;53.338;6.514;2023-03-14T07:11:44;4.10;99.90
52181;DHT22;38158;53.338;6.514;2023-03-14T07:14:10;4.10;99.90
52181;DHT22;38158;53.338;6.514;2023-03-14T07:16:36;4.20;99.90
52181;DHT22;38158;53.338;6.514;2023-03-14T07:19:02;4.00;99.90
52181;DHT22;38158;53.338;6.514;2023-03-14T07:21:28;4.10;99.90
52181;DHT22;38158;53.338;6.514;2023-03-14T07:23:54;4.10;99.90
52181;DHT22;38158;53.338;6.514;2023-03-14T07:26:20;4.10;99.90
52181;DHT22;38158;53.338;6.514;2023-03-14T07:28:46;4.00;99.90
52181;DHT22;38158;53.338;6.514;2023-03-14T07:31:11;4.00;99.90
52181;DHT22;38158;53.338;6.514;2023-03-14T07:33:37;4.10;99.90
52181;DHT22;38158;53.338;6.514;2023-03-14T07:36:04;4.20;99.90
52181;DHT22;38158;53.338;6.514;2023-03-14T07:38:30;4.00;99.90
52181;DHT22;38158;53.338;6.514;2023-03-14T07:41:03;4.10;99.90
52181;DHT22;38158;53.338;6.514;2023-03-14T07:43:30;4.10;99.90
52181;DHT22;38158;53.338;6.514;2023-03-14T07:45:56;4.10;99.90
52181;DHT22;38158;53.338;6.514;2023-03-14T07:48:22;4.20;99.90
52181;DHT22;38158;53.338;6.514;2023-03-14T07:50:51;4.20;99.90
52181;DHT22;38158;53.338;6.514;2023-03-14T07:53:17;4.30;99.90
52181;DHT22;38158;53.338;6.514;2023-03-14T07:55:43;4.40;99.90
52181;DHT22;38158;53.338;6.514;2023-03-14T07:58:09;4.60;99.90
52181;DHT22;38158;53.338;6.514;2023-03-14T08:00:35;4.50;99.90
52181;DHT22;38158;53.338;6.514;2023-03-14T08:03:01;4.80;99.90
52181;DHT22;38158;53.338;6.514;2023-03-14T08:05:27;4.60;99.90
52181;DHT22;38158;53.338;6.514;2023-03-14T08:07:52;4.60;99.90
52181;DHT22;38158;53.338;6.514;2023-03-14T08:10:18;4.60;99.90
52181;DHT22;38158;53.338;6.514;2023-03-14T08:12:51;4.70;99.90
52181;DHT22;38158;53.338;6.514;2023-03-14T08:15:18;4.70;99.90
52181;DHT22;38158;53.338;6.514;2023-03-14T08:17:44;4.80;99.90
52181;DHT22;38158;53.338;6.514;2023-03-14T08:20:10;4.90;99.90
52181;DHT22;38158;53.338;6.514;2023-03-14T08:22:37;5.00;99.90
52181;DHT22;38158;53.338;6.514;2023-03-14T08:25:04;5.00;99.90
52181;DHT22;38158;53.338;6.514;2023-03-14T08:27:30;5.10;99.90
52181;DHT22;38158;53.338;6.514;2023-03-14T08:29:55;5.40;99.90
52181;DHT22;38158;53.338;6.514;2023-03-14T08:32:21;5.20;99.90
52181;DHT22;38158;53.338;6.514;2023-03-14T08:34:49;5.20;99.90
52181;DHT22;38158;53.338;6.514;2023-03-14T08:37:15;5.30;99.90
52181;DHT22;38158;53.338;6.514;2023-03-14T08:39:40;5.30;99.90
52181;DHT22;38158;53.338;6.514;2023-03-14T08:42:06;5.40;99.90
52181;DHT22;38158;53.338;6.514;2023-03-14T08:44:32;5.40;99.90
52181;DHT22;38158;53.338;6.514;2023-03-14T08:46:57;5.40;99.90
52181;DHT22;38158;53.338;6.514;2023-03-14T08:49:23;5.50;99.90
52181;DHT22;38158;53.338;6.514;2023-03-14T08:51:49;5.50;99.90
52181;DHT22;38158;53.338;6.514;2023-03-14T08:54:15;5.50;99.90
52181;DHT22;38158;53.338;6.514;2023-03-14T08:56:40;5.60;99.90
52181;DHT22;38158;53.338;6.514;2023-03-14T08:59:06;5.60;99.90
52181;DHT22;38158;53.338;6.514;2023-03-14T09:01:33;5.70;99.90
52181;DHT22;38158;53.338;6.514;2023-03-14T09:03:59;5.80;99.90
52181;DHT22;38158;53.338;6.514;2023-03-14T09:06:25;6.00;99.90
52181;DHT22;38158;53.338;6.514;2023-03-14T09:08:50;6.10;99.90
52181;DHT22;38158;53.338;6.514;2023-03-14T09:11:16;6.10;99.90
52181;DHT22;38158;53.338;6.514;2023-03-14T09:13:44;6.00;99.90
52181;DHT22;38158;53.338;6.514;2023-03-14T09:16:10;6.00;99.90
52181;DHT22;38158;53.338;6.514;2023-03-14T09:18:36;5.90;99.90
52181;DHT22;38158;53.338;6.514;2023-03-14T09:21:01;5.90;99.90
52181;DHT22;38158;53.338;6.514;2023-03-14T09:23:28;5.90;99.90
52181;DHT22;38158;53.338;6.514;2023-03-14T09:25:57;5.80;99.90
52181;DHT22;38158;53.338;6.514;2023-03-14T09:28:23;5.80;99.90
52181;DHT22;38158;53.338;6.514;2023-03-14T09:30:49;5.80;99.90
52181;DHT22;38158;53.338;6.514;2023-03-14T09:33:16;5.80;99.90
52181;DHT22;38158;53.338;6.514;2023-03-14T09:35:41;5.90;99.90
52181;DHT22;38158;53.338;6.514;2023-03-14T09:38:07;5.90;99.90
52181;DHT22;38158;53.338;6.514;2023-03-14T09:40:37;5.90;99.90
52181;DHT22;38158;53.338;6.514;2023-03-14T09:43:04;6.00;99.90
52181;DHT22;38158;53.338;6.514;2023-03-14T09:45:36;6.10;99.90
52181;DHT22;38158;53.338;6.514;2023-03-14T09:48:04;6.10;99.90
52181;DHT22;38158;53.338;6.514;2023-03-14T09:50:40;6.00;99.90
52181;DHT22;38158;53.338;6.514;2023-03-14T09:53:19;5.90;99.90
52181;DHT22;38158;53.338;6.514;2023-03-14T09:55:47;5.90;99.90
52181;DHT22;38158;53.338;6.514;2023-03-14T09:58:18;5.90;99.90
52181;DHT22;38158;53.338;6.514;2023-03-14T10:00:44;5.90;99.90
52181;DHT22;38158;53.338;6.514;2023-03-14T10:05:40;5.90;99.90
52181;DHT22;38158;53.338;6.514;2023-03-14T10:08:09;5.90;99.90
52181;DHT22;38158;53.338;6.514;2023-03-14T10:10:35;5.90;99.90
52181;DHT22;38158;53.338;6.514;2023-03-14T10:13:23;5.90;99.90
52181;DHT22;38158;53.338;6.514;2023-03-14T10:15:53;5.90;99.90
52181;DHT22;38158;53.338;6.514;2023-03-14T10:18:21;5.90;99.90
52181;DHT22;38158;53.338;6.514;2023-03-14T10:20:48;5.90;99.90
52181;DHT22;38158;53.338;6.514;2023-03-14T10:25:45;5.80;99.90
52181;DHT22;38158;53.338;6.514;2023-03-14T10:28:27;5.90;99.90
52181;DHT22;38158;53.338;6.514;2023-03-14T10:30:53;6.10;99.90
52181;DHT22;38158;53.338;6.514;2023-03-14T10:33:22;6.40;99.90
52181;DHT22;38158;53.338;6.514;2023-03-14T10:38:40;6.60;99.90
52181;DHT22;38158;53.338;6.514;2023-03-14T10:41:38;6.30;99.90
52181;DHT22;38158;53.338;6.514;2023-03-14T10:44:12;6.10;99.90
52181;DHT22;38158;53.338;6.514;2023-03-14T10:46:38;5.90;99.90
52181;DHT22;38158;53.338;6.514;2023-03-14T10:49:05;5.90;99.90
52181;DHT22;38158;53.338;6.514;2023-03-14T10:51:31;5.80;99.90
52181;DHT22;38158;53.338;6.514;2023-03-14T10:56:34;6.00;99.90
52181;DHT22;38158;53.338;6.514;2023-03-14T10:59:02;6.30;99.90
52181;DHT22;38158;53.338;6.514;2023-03-14T11:02:07;6.50;99.90
52181;DHT22;38158;53.338;6.514;2023-03-14T11:07:43;6.40;99.90
52181;DHT22;38158;53.338;6.514;2023-03-14T11:15:33;6.10;97.50
52181;DHT22;38158;53.338;6.514;2023-03-14T11:29:54;6.50;97.90
52181;DHT22;38158;53.338;6.514;2023-03-14T11:33:03;6.50;98.00
52181;DHT22;38158;53.338;6.514;2023-03-14T11:35:26;6.40;98.70
52181;DHT22;38158;53.338;6.514;2023-03-14T11:40:41;6.50;99.90
52181;DHT22;38158;53.338;6.514;2023-03-14T11:43:28;6.70;98.30
52181;DHT22;38158;53.338;6.514;2023-03-14T11:45:59;6.70;99.20
52181;DHT22;38158;53.338;6.514;2023-03-14T11:51:14;6.60;99.90
52181;DHT22;38158;53.338;6.514;2023-03-14T11:53:47;6.70;99.90
52181;DHT22;38158;53.338;6.514;2023-03-14T11:56:24;6.60;99.90
52181;DHT22;38158;53.338;6.514;2023-03-14T11:58:57;6.60;99.90
52181;DHT22;38158;53.338;6.514;2023-03-14T12:01:29;6.50;99.90
52181;DHT22;38158;53.338;6.514;2023-03-14T12:04:10;6.30;99.90
52181;DHT22;38158;53.338;6.514;2023-03-14T12:06:49;6.20;99.90
52181;DHT22;38158;53.338;6.514;2023-03-14T12:09:18;6.10;99.90
52181;DHT22;38158;53.338;6.514;2023-03-14T12:11:52;6.00;99.90
52181;DHT22;38158;53.338;6.514;2023-03-14T12:14:34;5.90;99.90
52181;DHT22;38158;53.338;6.514;2023-03-14T12:17:36;5.90;99.90
52181;DHT22;38158;53.338;6.514;2023-03-14T12:20:15;5.80;99.90
52181;DHT22;38158;53.338;6.514;2023-03-14T12:22:43;5.80;99.90
52181;DHT22;38158;53.338;6.514;2023-03-14T12:25:27;5.80;99.90
52181;DHT22;38158;53.338;6.514;2023-03-14T12:30:32;5.80;99.90
52181;DHT22;38158;53.338;6.514;2023-03-14T12:35:43;5.90;99.90
52181;DHT22;38158;53.338;6.514;2023-03-14T12:41:24;6.20;99.90
52181;DHT22;38158;53.338;6.514;2023-03-14T12:43:51;6.20;99.90
52181;DHT22;38158;53.338;6.514;2023-03-14T12:48:48;6.40;99.90
52181;DHT22;38158;53.338;6.514;2023-03-14T12:51:17;6.40;97.50
52181;DHT22;38158;53.338;6.514;2023-03-14T12:59:30;6.70;95.90
52181;DHT22;38158;53.338;6.514;2023-03-14T13:02:00;6.70;99.90
52181;DHT22;38158;53.338;6.514;2023-03-14T13:04:32;6.60;98.30
52181;DHT22;38158;53.338;6.514;2023-03-14T13:07:00;6.50;99.90
52181;DHT22;38158;53.338;6.514;2023-03-14T13:11:56;6.60;99.90
52181;DHT22;38158;53.338;6.514;2023-03-14T13:14:28;6.60;99.90
52181;DHT22;38158;53.338;6.514;2023-03-14T13:16:54;6.50;96.50
52181;DHT22;38158;53.338;6.514;2023-03-14T13:19:29;6.50;99.90
52181;DHT22;38158;53.338;6.514;2023-03-14T13:22:17;6.50;96.70
52181;DHT22;38158;53.338;6.514;2023-03-14T13:24:45;6.50;94.00
52181;DHT22;38158;53.338;6.514;2023-03-14T13:27:20;6.50;96.00
52181;DHT22;38158;53.338;6.514;2023-03-14T13:29:49;6.70;98.80
52181;DHT22;38158;53.338;6.514;2023-03-14T13:32:26;6.80;99.90
52181;DHT22;38158;53.338;6.514;2023-03-14T13:34:56;7.00;99.90
52181;DHT22;38158;53.338;6.514;2023-03-14T13:37:24;7.00;99.90
52181;DHT22;38158;53.338;6.514;2023-03-14T13:39:51;7.00;99.90
52181;DHT22;38158;53.338;6.514;2023-03-14T13:42:18;6.90;99.90
52181;DHT22;38158;53.338;6.514;2023-03-14T13:44:44;6.60;98.60
52181;DHT22;38158;53.338;6.514;2023-03-14T13:47:15;6.50;99.90
52181;DHT22;38158;53.338;6.514;2023-03-14T13:49:42;6.50;99.90
52181;DHT22;38158;53.338;6.514;2023-03-14T13:52:41;6.40;99.90
52181;DHT22;38158;53.338;6.514;2023-03-14T13:55:15;6.30;99.40
52181;DHT22;38158;53.338;6.514;2023-03-14T13:57:46;6.30;99.90
52181;DHT22;38158;53.338;6.514;2023-03-14T14:00:24;6.30;99.90
52181;DHT22;38158;53.338;6.514;2023-03-14T14:02:54;6.40;99.90
52181;DHT22;38158;53.338;6.514;2023-03-14T14:05:20;6.50;99.90
52181;DHT22;38158;53.338;6.514;2023-03-14T14:07:46;6.60;99.90
52181;DHT22;38158;53.338;6.514;2023-03-14T14:10:14;6.70;96.30
52181;DHT22;38158;53.338;6.514;2023-03-14T14:12:48;6.50;93.50
52181;DHT22;38158;53.338;6.514;2023-03-14T14:15:22;6.30;92.30
52181;DHT22;38158;53.338;6.514;2023-03-14T14:18:00;6.10;94.40
52181;DHT22;38158;53.338;6.514;2023-03-14T14:22:58;6.00;99.60
52181;DHT22;38158;53.338;6.514;2023-03-14T14:25:24;5.90;99.90
52181;DHT22;38158;53.338;6.514;2023-03-14T14:27:50;5.90;99.90
52181;DHT22;38158;53.338;6.514;2023-03-14T14:32:49;5.80;99.90
52181;DHT22;38158;53.338;6.514;2023-03-14T14:35:33;5.70;99.90
52181;DHT22;38158;53.338;6.514;2023-03-14T14:38:00;5.70;99.90
52181;DHT22;38158;53.338;6.514;2023-03-14T14:40:28;5.60;99.90
52181;DHT22;38158;53.338;6.514;2023-03-14T14:43:02;5.50;99.90
52181;DHT22;38158;53.338;6.514;2023-03-14T14:45:28;5.80;99.90
52181;DHT22;38158;53.338;6.514;2023-03-14T14:48:02;5.90;99.90
52181;DHT22;38158;53.338;6.514;2023-03-14T14:55:55;6.40;99.90
52181;DHT22;38158;53.338;6.514;2023-03-14T14:58:27;6.50;99.90
52181;DHT22;38158;53.338;6.514;2023-03-14T15:01:02;6.60;99.90
52181;DHT22;38158;53.338;6.514;2023-03-14T15:03:31;6.80;99.90
52181;DHT22;38158;53.338;6.514;2023-03-14T15:05:58;6.90;99.90
52181;DHT22;38158;53.338;6.514;2023-03-14T15:08:25;6.90;99.90
52181;DHT22;38158;53.338;6.514;2023-03-14T15:10:51;6.90;99.90
52181;DHT22;38158;53.338;6.514;2023-03-14T15:13:17;6.90;99.90
52181;DHT22;38158;53.338;6.514;2023-03-14T15:15:42;6.90;99.90
52181;DHT22;38158;53.338;6.514;2023-03-14T15:18:17;6.80;99.90
52181;DHT22;38158;53.338;6.514;2023-03-14T15:20:43;6.90;99.00
52181;DHT22;38158;53.338;6.514;2023-03-14T15:23:14;6.80;99.90
52181;DHT22;38158;53.338;6.514;2023-03-14T15:25:41;6.80;99.90
52181;DHT22;38158;53.338;6.514;2023-03-14T15:28:13;6.80;99.90
52181;DHT22;38158;53.338;6.514;2023-03-14T15:30:39;6.80;99.90
52181;DHT22;38158;53.338;6.514;2023-03-14T15:33:05;6.80;99.90
52181;DHT22;38158;53.338;6.514;2023-03-14T15:35:37;6.60;99.90
52181;DHT22;38158;53.338;6.514;2023-03-14T15:38:03;6.60;99.90
52181;DHT22;38158;53.338;6.514;2023-03-14T15:40:29;6.50;99.90
52181;DHT22;38158;53.338;6.514;2023-03-14T15:42:55;6.50;99.90
52181;DHT22;38158;53.338;6.514;2023-03-14T15:45:21;6.50;99.90
52181;DHT22;38158;53.338;6.514;2023-03-14T15:47:46;6.50;99.90
52181;DHT22;38158;53.338;6.514;2023-03-14T15:50:12;6.50;99.90
52181;DHT22;38158;53.338;6.514;2023-03-14T15:52:38;6.60;99.90
52181;DHT22;38158;53.338;6.514;2023-03-14T15:55:04;6.50;99.90
52181;DHT22;38158;53.338;6.514;2023-03-14T15:57:29;6.50;99.90
52181;DHT22;38158;53.338;6.514;2023-03-14T15:59:55;6.30;99.90
52181;DHT22;38158;53.338;6.514;2023-03-14T16:02:21;6.00;99.90
52181;DHT22;38158;53.338;6.514;2023-03-14T16:04:47;5.80;99.90
52181;DHT22;38158;53.338;6.514;2023-03-14T16:07:12;5.60;99.90
52181;DHT22;38158;53.338;6.514;2023-03-14T16:09:38;5.50;99.90
52181;DHT22;38158;53.338;6.514;2023-03-14T16:12:04;5.40;99.90
52181;DHT22;38158;53.338;6.514;2023-03-14T16:14:32;5.40;99.90
52181;DHT22;38158;53.338;6.514;2023-03-14T16:16:58;5.40;99.90
52181;DHT22;38158;53.338;6.514;2023-03-14T16:19:27;5.40;99.90
52181;DHT22;38158;53.338;6.514;2023-03-14T16:21:53;5.50;99.90
52181;DHT22;38158;53.338;6.514;2023-03-14T16:24:19;5.50;99.90
52181;DHT22;38158;53.338;6.514;2023-03-14T16:26:45;5.70;99.90
52181;DHT22;38158;53.338;6.514;2023-03-14T16:29:12;5.60;99.90
52181;DHT22;38158;53.338;6.514;2023-03-14T16:31:37;5.60;99.90
52181;DHT22;38158;53.338;6.514;2023-03-14T16:34:10;5.70;99.90
52181;DHT22;38158;53.338;6.514;2023-03-14T16:36:36;5.70;99.90
52181;DHT22;38158;53.338;6.514;2023-03-14T16:39:03;5.70;99.90
52181;DHT22;38158;53.338;6.514;2023-03-14T16:41:29;5.60;99.90
52181;DHT22;38158;53.338;6.514;2023-03-14T16:43:59;5.50;99.90
52181;DHT22;38158;53.338;6.514;2023-03-14T16:46:27;5.40;99.90
52181;DHT22;38158;53.338;6.514;2023-03-14T16:48:55;5.40;99.90
52181;DHT22;38158;53.338;6.514;2023-03-14T16:51:22;5.30;99.90
52181;DHT22;38158;53.338;6.514;2023-03-14T16:53:47;5.30;99.90
52181;DHT22;38158;53.338;6.514;2023-03-14T16:56:14;5.30;99.90
52181;DHT22;38158;53.338;6.514;2023-03-14T16:58:40;5.30;99.90
52181;DHT22;38158;53.338;6.514;2023-03-14T17:01:08;5.30;99.90
52181;DHT22;38158;53.338;6.514;2023-03-14T17:03:39;5.20;99.90
52181;DHT22;38158;53.338;6.514;2023-03-14T17:06:05;5.20;99.90
52181;DHT22;38158;53.338;6.514;2023-03-14T17:08:32;5.00;99.90